Flight Track Log - Related Links

Times and Time Zones

All times are in EDT time to prevent confusion due to time zone crossing. See the EGF2788 flight status page for this flight to view local times or setup timezone preferences in your user account.

Time Position Orientation Groundspeed Altitude Reporting Facility
EDT Latitude Longitude Course Direction KTS MPH feet Rate Location/Type
Thu 10:43:48 PM 32.9167 -97.0500 360° North 171 197 1,100  Level Dallas / Fort Worth TRACON
Thu 10:44:30 PM 32.9500 -97.0500 360° North 200 230 2,500 2,080 Climbing Dallas / Fort Worth TRACON
Thu 10:45:03 PM 32.9733 -97.0522 355° North 202 232 3,700 2,106 Climbing Fort Worth Center
Thu 10:46:04 PM 33.0475 -97.0536 359° North 250 288 5,800 2,341 Climbing Fort Worth Center
Thu 10:47:06 PM 33.1219 -97.0597 356° North 268 308 8,500 2,195 Climbing Fort Worth Center
Thu 10:48:07 PM 33.1875 -97.0406 14° North 276 318 10,300 1,672 Climbing Fort Worth Center
Thu 10:49:08 PM 33.2650 -96.9756 35° Northeast 315 362 11,900 1,672 Climbing Fort Worth Center
Thu 10:50:09 PM 33.3458 -96.9078 35° Northeast 333 383 13,700 1,672 Climbing Fort Worth Center
Thu 10:51:10 PM 33.4242 -96.8442 34° Northeast 339 390 15,300 1,574 Climbing Fort Worth Center
Thu 10:52:11 PM 33.5089 -96.7833 31° Northeast 354 407 16,900 1,610 Climbing Fort Worth Center
Thu 10:53:13 PM 33.6039 -96.7242 27° Northeast 357 411 18,600 1,707 Climbing Fort Worth Center
Thu 10:54:14 PM 33.6911 -96.6667 29° Northeast 357 411 20,400 1,721 Climbing Fort Worth Center
Thu 10:55:15 PM 33.7800 -96.6094 28° Northeast 360 414 22,100 1,574 Climbing Fort Worth Center
Thu 10:56:16 PM 33.8689 -96.5531 28° Northeast 365 420 23,600 1,475 Climbing Fort Worth Center
Thu 10:57:17 PM 33.9633 -96.4928 28° Northeast 380 437 25,100 1,377 Climbing Fort Worth Center
Thu 10:58:18 PM 34.0564 -96.4314 29° Northeast 380 437 26,400 1,180 Climbing Fort Worth Center
Thu 10:59:19 PM 34.1478 -96.3594 33° Northeast 388 447 27,500 1,033 Climbing Fort Worth Center
Thu 11:00:20 PM 34.2400 -96.2839 34° Northeast 394 453 28,500 738 Climbing Fort Worth Center
Thu 11:01:21 PM 34.3392 -96.2025 34° Northeast 416 479 29,000 244 Climbing Fort Worth Center
Thu 11:02:23 PM 34.4431 -96.1167 34° Northeast 446 513 29,000  Level Fort Worth Center
Thu 11:03:24 PM 34.5511 -96.0294 34° Northeast 463 533 29,000  Level Fort Worth Center
Thu 11:04:25 PM 34.6819 -95.9211 34° Northeast 475 547 29,000 -148 Level Fort Worth Center
Thu 11:05:26 PM 34.7925 -95.8297 34° Northeast 481 554 28,700 -639 Descending Fort Worth Center
Thu 11:06:27 PM 34.8956 -95.7308 38° Northeast 475 547 27,700 -885 Descending Fort Worth Center
Thu 11:07:28 PM 34.9822 -95.6289 44° Northeast 469 540 26,900 -885 Descending Fort Worth Center
Thu 11:08:29 PM 35.0789 -95.5169 43° Northeast 475 547 25,900 -1,220 Descending Fort Worth Center
Thu 11:09:31 PM 35.1758 -95.4028 44° Northeast 484 557 24,400 -1,902 Descending Fort Worth Center
Thu 11:10:32 PM 35.2836 -95.2750 44° Northeast 455 524 22,000 -2,164 Descending Fort Worth Center
Thu 11:11:33 PM 35.3692 -95.1728 44° Northeast 448 516 20,000 -2,016 Descending Fort Worth Center
Thu 11:12:34 PM 35.4617 -95.0683 43° Northeast 432 497 17,900 -1,820 Descending Fort Worth Center
Thu 11:13:35 PM 35.5458 -94.9786 41° Northeast 417 480 16,300 -1,900 Descending Fort Worth Center
Thu 11:14:34 PM 35.6319 -94.8831 42° Northeast 415 478 14,100 -2,100 Descending Memphis Center
Thu 11:15:35 PM 35.7108 -94.7969 42° Northeast 392 451 12,100 -1,820 Descending Memphis Center
Thu 11:16:36 PM 35.7828 -94.7169 42° Northeast 363 418 10,400 -1,279 Descending Memphis Center
Thu 11:17:37 PM 35.8431 -94.6500 42° Northeast 319 367 9,500 -934 Descending Memphis Center
Thu 11:18:38 PM 35.8978 -94.5894 42° Northeast 284 327 8,500 -1,082 Descending Memphis Center
Thu 11:19:39 PM 35.9542 -94.5267 42° Northeast 277 319 7,300 -1,180 Descending Memphis Center
Thu 11:20:40 PM 36.0097 -94.4653 42° Northeast 274 315 6,100 -1,082 Descending Memphis Center
Thu 11:21:41 PM 36.0633 -94.4061 42° Northeast 268 308 5,100 -984 Descending Memphis Center
Thu 11:22:42 PM 36.1167 -94.3531 39° Northeast 259 298 4,100 -836 Descending Memphis Center
Thu 11:23:43 PM 36.1700 -94.3033 37° Northeast 250 288 3,400 -787 Descending Memphis Center
Thu 11:24:44 PM 36.2122 -94.2811 23° Northeast 200 230 2,500 -738 Descending Memphis Center
Thu 11:25:45 PM 36.2578 -94.2942 347° North 173 199 1,900 -590 Descending Memphis Center
Thu 11:27:00 PM 36.2667 -94.3000 270° West  Level FlightAware Approximate
Thu 11:34:00 PM 36.2816 -94.3078 270° West  Level Estimated

Login

Don't have an account? Register now (free) for customized features, flight alerts, and more!